Flight Track Log - Related Links

Times and Time Zones

All times are in EDT time to prevent confusion due to time zone crossing. See the AAY842 flight status page for this flight to view local times or setup timezone preferences in your user account.

Time Position Orientation Groundspeed Altitude Reporting Facility
EDT Latitude Longitude Course Direction KTS MPH feet Rate Location/Type
Fri 17:40:20 27.9000 -82.6833 180° South 168 193 800  Level Tampa TRACON
Fri 17:41:20 27.8333 -82.6833 180° South 231 266 2,000 1,850 Climbing Tampa TRACON
Fri 17:42:20 27.8000 -82.7167 221° Southwest 248 285 4,500 2,750 Climbing Tampa TRACON
Fri 17:43:20 27.8000 -82.8000 270° West 237 273 7,500 2,550 Climbing Tampa TRACON
Fri 17:44:20 27.8667 -82.8000 360° North 299 344 9,600 1,930 Climbing Tampa TRACON
Fri 17:45:15 27.9333 -82.7667 24° Northeast 319 367 11,200 1,614 Climbing Tampa TRACON
Fri 17:52:01 28.6453 -82.6208 North 429 494 22,000 1,664 Climbing FlightAware ADS-B
Fri 17:54:52 28.9914 -82.6083 North 432 497 27,200 1,768 Climbing FlightAware ADS-B
Fri 17:55:28 29.0673 -82.6055 North 431 496 28,100 1,143 Climbing FlightAware ADS-B
Fri 17:56:37 29.1998 -82.6008 North 441 507 29,200 942 Climbing FlightAware ADS-B
Fri 17:57:29 29.3036 -82.5972 North 424 488 30,000 1,018 Climbing Jacksonville Center
Fri 17:58:29 29.4289 -82.5922 North 430 495 31,100 991 Climbing Jacksonville Center
Fri 18:04:33 30.2009 -82.5641 North 444 511 37,000 843 Climbing FlightAware ADS-B
Fri 18:05:29 30.2975 -82.5631 North 442 509 37,000  Level Jacksonville Center
Fri 18:06:29 30.4186 -82.5578 North 436 502 37,000 -50 Level Jacksonville Center
Fri 18:07:29 30.5417 -82.5406 North 436 502 36,900 -50 Descending Jacksonville Center
Fri 18:08:29 30.6606 -82.4942 19° North 446 513 36,900 50 Level Jacksonville Center
Fri 18:09:29 30.7794 -82.4478 19° North 453 521 37,000 50 Climbing Jacksonville Center
Fri 18:10:29 30.9003 -82.4011 18° North 458 527 37,000  Level Jacksonville Center
Fri 18:11:29 31.0211 -82.3544 18° North 458 527 37,000  Level Jacksonville Center
Fri 18:12:29 31.1400 -82.3053 19° North 458 527 37,000  Level Jacksonville Center
Fri 18:13:29 31.2608 -82.2583 18° North 458 527 37,000  Level Jacksonville Center
Fri 18:14:29 31.3817 -82.2111 18° North 453 521 37,000  Level Jacksonville Center
Fri 18:15:29 31.5025 -82.1617 19° North 458 527 37,000  Level Jacksonville Center
Fri 18:16:29 31.6358 -82.1069 19° North 458 527 37,000  Level Jacksonville Center
Fri 18:17:29 31.7567 -82.0569 19° North 458 527 37,000  Level Jacksonville Center
Fri 18:18:29 31.8669 -82.0119 19° North 458 527 37,000  Level Jacksonville Center
Fri 18:19:29 32.0044 -81.9592 18° North 464 534 37,000  Level Jacksonville Center
Fri 18:20:29 32.1250 -81.8967 24° Northeast 464 534 37,000  Level Jacksonville Center
Fri 18:21:29 32.2353 -81.8464 21° North 469 540 37,000  Level Jacksonville Center
Fri 18:22:29 32.3683 -81.7833 22° Northeast 469 540 37,000  Level Jacksonville Center
Fri 18:23:29 32.4806 -81.7303 22° Northeast 469 540 37,000  Level Jacksonville Center
Fri 18:24:29 32.6136 -81.6644 23° Northeast 475 547 37,000  Level Jacksonville Center
Fri 18:25:29 32.7236 -81.6111 22° Northeast 470 541 37,000  Level Jacksonville Center
Fri 18:26:29 32.8464 -81.5525 22° Northeast 475 547 37,000  Level Jacksonville Center
Fri 18:27:29 32.9689 -81.4911 23° Northeast 475 547 37,000  Level Jacksonville Center
Fri 18:28:29 33.0911 -81.4322 22° Northeast 475 547 37,000  Level Jacksonville Center
Fri 18:29:29 33.2136 -81.3731 22° Northeast 470 541 37,000  Level Jacksonville Center
Fri 18:31:27 33.4703 -81.2447 23° Northeast 468 539 37,000  Level Atlanta Center
Fri 18:36:18 34.0823 -80.9460 22° Northeast 486 559 37,000  Level FlightAware ADS-B
Fri 18:36:55 34.1559 -80.9105 22° Northeast 487 560 37,000  Level FlightAware ADS-B
Fri 18:37:49 34.2710 -80.8548 22° Northeast 486 559 37,000  Level FlightAware ADS-B
Fri 18:38:41 34.3802 -80.8021 22° Northeast 484 557 37,000  Level FlightAware ADS-B
Fri 18:39:27 34.4686 -80.7633 22° Northeast 486 559 37,000  Level Atlanta Center
Fri 18:40:27 34.5922 -80.7056 21° North 481 554 37,000  Level Atlanta Center
Fri 18:41:27 34.7175 -80.6375 24° Northeast 481 554 37,000  Level Atlanta Center
Fri 18:42:27 34.8433 -80.5792 21° North 481 554 37,000  Level Atlanta Center
Fri 18:43:27 34.9583 -80.5211 22° Northeast 488 562 37,000  Level Atlanta Center
Fri 18:44:27 35.0839 -80.4600 22° Northeast 488 562 37,000  Level Atlanta Center
Fri 18:45:27 35.2094 -80.3961 23° Northeast 488 562 37,000  Level Atlanta Center
Fri 18:46:27 35.3347 -80.3319 23° Northeast 488 562 37,000  Level Atlanta Center
Fri 18:47:58 35.5339 -80.2322 22° Northeast 489 563 37,000 -161 Level Washington Center
Fri 18:48:56 35.6617 -80.1681 22° Northeast 489 563 36,600 -756 Descending Washington Center
Fri 18:49:57 35.7872 -80.1036 23° Northeast 482 555 35,500 -843 Descending Washington Center
Fri 18:50:57 35.9167 -80.0469 20° North 482 555 34,900 -1,190 Descending Washington Center
Fri 18:51:58 36.0400 -79.9819 23° Northeast 482 555 33,100 -942 Descending Washington Center
Fri 18:52:58 36.1603 -79.8911 31° Northeast 482 555 33,000 -50 Descending Washington Center
Fri 18:53:58 36.2781 -79.8072 30° Northeast 487 560 33,000  Level Washington Center
Fri 18:54:56 36.3903 -79.7539 21° North 485 558 33,000  Level Washington Center
Fri 18:55:57 36.5303 -79.6889 20° North 473 544 33,000  Level Washington Center
Fri 18:56:58 36.6556 -79.6283 21° North 478 550 33,000  Level Washington Center
Fri 18:57:58 36.7847 -79.5678 21° North 478 550 33,000  Level Washington Center
Fri 18:58:56 36.9119 -79.5067 21° North 483 556 33,000  Level Washington Center
Fri 18:59:56 37.0286 -79.4500 21° North 483 556 33,000  Level Washington Center
Fri 19:00:57 37.1558 -79.3861 22° Northeast 483 556 33,000  Level Washington Center
Fri 19:01:57 37.2872 -79.3247 20° North 483 556 33,000  Level Washington Center
Fri 19:02:58 37.4311 -79.2561 21° North 493 567 33,000  Level Washington Center
Fri 19:03:58 37.5475 -79.1986 21° North 501 577 33,000  Level Washington Center
Fri 19:04:56 37.6808 -79.1342 21° North 501 577 33,000  Level Washington Center
Fri 19:05:56 37.8100 -79.0719 21° North 496 571 33,000  Level Washington Center
Fri 19:06:57 37.9389 -79.0094 21° North 496 571 33,000  Level Washington Center
Fri 19:07:57 38.0808 -78.9394 21° North 496 571 33,000  Level Washington Center
Fri 19:08:58 38.2117 -78.8767 21° North 496 571 33,000  Level Washington Center
Fri 19:09:56 38.3239 -78.8181 22° Northeast 491 565 33,000  Level Washington Center
Fri 19:16:49 39.2434 -78.3504 21° North 505 581 33,000  Level FlightAware ADS-B (KDAA)
Fri 19:17:20 39.3073 -78.3176 21° North 505 581 33,000  Level FlightAware ADS-B (KDAA)
Fri 19:17:48 39.3174 -78.3124 21° North 505 581 33,000  Level FlightAware ADS-B (KDAA)
Fri 19:22:36 39.5823 -78.1657 23° Northeast 512 589 33,000  Level FlightAware ADS-B (KPHL)
Fri 19:23:06 40.0564 -77.9014 23° Northeast 512 589 33,000 -860 Level New York Center
Fri 19:27:43 40.5610 -77.4216 21° North 497 572 28,600 -890 Descending FlightAware ADS-B (KPHL)
Fri 19:32:12 41.1492 -77.1253 21° North 463 533 24,900 -840 Descending FlightAware ADS-B (KPHL)
Fri 19:32:43 41.2082 -77.0954 21° North 457 526 24,400 -651 Descending FlightAware ADS-B (KPHL)
Fri 19:35:07 41.4860 -76.9540 21° North 445 512 23,000 -424 Descending FlightAware ADS-B
Fri 19:36:01 41.5280 -76.9320 21° North 445 512 23,000  Level FlightAware ADS-B
Fri 19:37:53 41.5870 -76.9020 21° North 441 507 23,000  Level FlightAware ADS-B
Fri 19:38:20 41.6010 -76.8950 21° North 441 507 23,000 -816 Level FlightAware ADS-B
Fri 19:39:36 41.7550 -76.8150 21° North 446 513 21,600 -1,707 Descending FlightAware ADS-B
Fri 19:40:23 41.8940 -76.7430 21° North 430 495 19,500 -1,586 Descending FlightAware ADS-B
Fri 19:41:03 41.9110 -76.7340 21° North 430 495 19,300 -1,979 Descending FlightAware ADS-B
Fri 19:43:31 42.3710 -76.4920 21° North 376 433 13,300 -1,941 Descending FlightAware ADS-B
Fri 19:45:01 42.4490 -76.4520 21° North 377 434 11,600 -741 Descending FlightAware ADS-B
Fri 19:46:13 42.4780 -76.4360 21° North 369 425 11,300 -561 Descending FlightAware ADS-B
Fri 19:46:48 42.7206 -76.3600 21° North 350 403 10,600 -1,520 Descending Boston Center
Fri 19:47:28 42.7769 -76.3519 North 314 361 9,400 -2,066 Descending Boston Center
Fri 19:47:49 42.8081 -76.3489 North 325 374 8,500 -2,100 Descending Boston Center
Fri 19:48:28 42.8625 -76.3411 North 301 346 7,300 -1,672 Descending Boston Center
Fri 19:48:50 42.8864 -76.3378 North 309 356 6,800 -2,069 Descending Boston Center
Fri 19:49:26 42.9503 -76.3283 North 292 336 5,300 -1,594 Descending Boston Center
Fri 19:49:54 42.9672 -76.3264 North 299 344 5,100 -689 Descending Boston Center
Fri 19:50:27 43.0247 -76.3172 North 260 299 4,600 -590 Descending Boston Center
Fri 19:50:55 43.0414 -76.3158 North 282 325 4,500 -689 Descending Boston Center
Fri 19:51:28 43.0908 -76.3061 North 235 270 3,900 -1,279 Descending Boston Center
Fri 19:51:56 43.1211 -76.3036 North 259 298 3,200 -1,180 Descending Boston Center
Fri 19:52:29 43.1556 -76.3033 360° North 225 259 2,700 -900 Descending Boston Center
Fri 19:52:56 43.1792 -76.2964 12° North 241 277 2,300 -689 Descending Boston Center
Fri 19:53:30 43.1819 -76.2619 84° East 147 169 2,000 -290 Descending Boston Center
Fri 19:53:58 43.1781 -76.2453 108° East 173 199 2,000  Level Boston Center
Fri 19:54:37 43.1647 -76.2128 119° Southeast 124 143 2,000 -290 Level Boston Center
Fri 19:55:00 43.1617 -76.1969 105° East 148 170 1,700 -700 Descending Boston Center
Fri 19:55:37 43.1539 -76.1625 107° East 135 155 1,300 -508 Descending Boston Center
Fri 19:55:59 43.1497 -76.1514 117° Southeast 138 159 1,200 -545 Descending Boston Center
Fri 19:56:32 43.1317 -76.1292 138° Southeast 130 150 800 -689 Descending Boston Center
Fri 19:57:00 43.1247 -76.1156 125° Southeast 130 150 500 -643 Descending Boston Center

Login

Don't have an account? Register now (free) for customized features, flight alerts, and more!